createdAt,value
2022-11-29T00:01:04.544Z,99091.84
2022-11-29T00:03:31.962Z,99086.56
2022-11-29T00:06:11.175Z,99081.25
2022-11-29T00:08:38.379Z,99079.44
2022-11-29T00:11:45.266Z,99082.28
2022-11-29T00:14:13.828Z,99078.63
2022-11-29T00:16:43.533Z,99082.28
2022-11-29T00:19:11.078Z,99081.31
2022-11-29T00:21:37.991Z,99075.25
2022-11-29T00:24:05.270Z,99079.56
2022-11-29T00:26:32.011Z,99080.50
2022-11-29T00:28:59.106Z,99080.63
2022-11-29T00:31:27.694Z,99086.88
2022-11-29T00:33:54.809Z,99081.75
2022-11-29T00:36:21.659Z,99077.25
2022-11-29T00:38:48.663Z,99071.25
2022-11-29T00:41:15.391Z,99075.69
2022-11-29T00:43:42.554Z,99072.84
2022-11-29T00:46:09.400Z,99077.25
2022-11-29T00:48:36.756Z,99078.22
2022-11-29T00:51:04.211Z,99075.56
2022-11-29T00:53:31.627Z,99073.91
2022-11-29T00:55:58.426Z,99075.75
2022-11-29T00:58:25.554Z,99074.22
2022-11-29T01:00:55.496Z,99076.09
2022-11-29T01:03:22.719Z,99079.75
2022-11-29T01:05:49.503Z,99076.41
2022-11-29T01:08:17.246Z,99075.50
2022-11-29T01:10:44.103Z,99070.22
2022-11-29T01:13:11.219Z,99068.84
2022-11-29T01:15:37.995Z,99072.91
2022-11-29T01:18:05.134Z,99071.03
2022-11-29T01:20:31.935Z,99076.28
2022-11-29T01:22:59.014Z,99066.56
2022-11-29T01:25:25.786Z,99074.59
2022-11-29T01:27:52.845Z,99070.34
2022-11-29T01:30:19.556Z,99069.44
2022-11-29T01:32:46.599Z,99070.41
2022-11-29T01:35:13.307Z,99062.50
2022-11-29T01:37:40.420Z,99056.25
2022-11-29T01:40:07.707Z,99063.41
2022-11-29T01:42:34.775Z,99062.63
2022-11-29T01:45:04.236Z,99063.69
2022-11-29T01:47:31.630Z,99061.75
2022-11-29T01:49:58.363Z,99067.94
2022-11-29T01:52:26.380Z,99066.59
2022-11-29T01:54:56.572Z,99063.81
2022-11-29T01:57:23.686Z,99070.22
2022-11-29T02:00:00.737Z,99059.47
2022-11-29T02:02:40.237Z,99071.13
2022-11-29T02:05:07.666Z,99061.34
2022-11-29T02:07:34.862Z,99064.28
2022-11-29T02:10:02.226Z,99065.31
2022-11-29T02:12:31.218Z,99058.94
2022-11-29T02:15:08.073Z,99061.78
2022-11-29T02:17:48.420Z,99065.31
2022-11-29T02:20:40.034Z,99062.59
2022-11-29T02:23:28.963Z,99065.50
2022-11-29T02:26:20.222Z,99070.03
2022-11-29T02:29:10.374Z,99071.91
2022-11-29T02:31:50.806Z,99068.56
2022-11-29T02:34:33.167Z,99075.47
2022-11-29T02:37:27.226Z,99065.78
2022-11-29T02:40:28.401Z,99065.94
2022-11-29T02:43:36.665Z,99072.88
2022-11-29T02:46:25.079Z,99074.81
2022-11-29T02:49:00.923Z,99072.25
2022-11-29T02:51:34.770Z,99071.50
2022-11-29T02:54:06.702Z,99075.38
2022-11-29T02:56:52.276Z,99077.09
2022-11-29T02:59:33.974Z,99078.09
2022-11-29T03:02:12.237Z,99080.81
2022-11-29T03:04:51.433Z,99082.72
2022-11-29T03:07:24.104Z,99081.72
2022-11-29T03:10:13.533Z,99088.84
2022-11-29T03:12:42.282Z,99086.31
2022-11-29T03:15:31.871Z,99090.88
2022-11-29T03:18:33.013Z,99103.22
2022-11-29T03:21:08.942Z,99096.84
2022-11-29T03:23:48.796Z,99095.13
2022-11-29T03:26:34.344Z,99097.63
2022-11-29T03:29:16.629Z,99108.66
2022-11-29T03:31:52.275Z,99106.00
2022-11-29T03:34:34.304Z,99102.31
2022-11-29T03:37:07.121Z,99110.38
2022-11-29T03:39:41.584Z,99108.66
2022-11-29T03:42:11.413Z,99106.91
2022-11-29T03:44:41.566Z,99107.97
2022-11-29T03:47:10.349Z,99112.34
2022-11-29T03:49:42.825Z,99106.97
2022-11-29T03:52:16.466Z,99115.22
2022-11-29T03:55:11.385Z,99115.31
2022-11-29T03:57:57.772Z,99114.44
2022-11-29T04:00:25.033Z,99118.84
2022-11-29T04:03:33.802Z,99114.44
2022-11-29T04:06:38.447Z,99119.84
2022-11-29T04:09:05.116Z,99128.78
2022-11-29T04:11:55.993Z,99128.69
2022-11-29T04:14:34.815Z,99127.63
2022-11-29T04:17:10.612Z,99123.59
2022-11-29T04:20:14.678Z,99120.97
2022-11-29T04:22:44.071Z,99123.34
2022-11-29T04:25:33.932Z,99125.28
2022-11-29T04:28:09.459Z,99126.03
2022-11-29T04:31:12.661Z,99126.06
2022-11-29T04:33:42.650Z,99136.78
2022-11-29T04:36:31.468Z,99135.81
2022-11-29T04:39:04.480Z,99135.72
2022-11-29T04:41:51.641Z,99133.00
2022-11-29T04:44:44.031Z,99137.56
2022-11-29T04:47:38.076Z,99143.66
2022-11-29T04:50:27.035Z,99146.44
2022-11-29T04:53:09.964Z,99149.84
2022-11-29T04:55:52.091Z,99157.84
2022-11-29T04:58:27.158Z,99149.91
2022-11-29T05:01:25.426Z,99156.16
2022-11-29T05:04:16.915Z,99154.44
2022-11-29T05:07:02.261Z,99150.81
2022-11-29T05:10:01.762Z,99161.41
2022-11-29T05:12:47.728Z,99162.09
2022-11-29T05:15:27.551Z,99168.44
2022-11-29T05:18:16.374Z,99165.19
2022-11-29T05:21:04.435Z,99163.22
2022-11-29T05:23:59.314Z,99155.41
2022-11-29T05:26:50.962Z,99170.25
2022-11-29T05:29:40.047Z,99166.69
2022-11-29T05:32:21.678Z,99170.19
2022-11-29T05:35:00.646Z,99172.63
2022-11-29T05:37:49.525Z,99174.59
2022-11-29T05:40:24.146Z,99174.59
2022-11-29T05:42:54.933Z,99177.28
2022-11-29T05:45:25.966Z,99184.34
2022-11-29T05:48:10.175Z,99193.94
2022-11-29T05:50:49.578Z,99188.56
2022-11-29T05:53:25.464Z,99196.69
2022-11-29T05:56:23.656Z,99189.56
2022-11-29T05:58:55.818Z,99190.09
2022-11-29T06:01:41.828Z,99197.16
2022-11-29T06:04:16.954Z,99195.63
2022-11-29T06:06:48.078Z,99194.69
2022-11-29T06:09:29.052Z,99195.69
2022-11-29T06:12:21.030Z,99201.81
2022-11-29T06:14:51.070Z,99202.59
2022-11-29T06:17:39.633Z,99200.75
2022-11-29T06:20:15.489Z,99200.69
2022-11-29T06:22:58.344Z,99206.06
2022-11-29T06:25:38.201Z,99208.63
2022-11-29T06:28:42.836Z,99198.56
2022-11-29T06:31:15.553Z,99213.88
2022-11-29T06:33:56.462Z,99204.88
2022-11-29T06:36:26.083Z,99202.50
2022-11-29T06:38:53.284Z,99205.31
2022-11-29T06:41:22.028Z,99206.06
2022-11-29T06:43:49.348Z,99211.97
2022-11-29T06:46:16.140Z,99206.44
2022-11-29T06:48:51.520Z,99218.03
2022-11-29T06:52:07.075Z,99213.66
2022-11-29T06:54:40.146Z,99222.56
2022-11-29T06:57:24.963Z,99223.31
2022-11-29T06:59:52.029Z,99225.00
2022-11-29T07:02:37.111Z,99222.03
2022-11-29T07:05:15.479Z,99227.13
2022-11-29T07:07:42.585Z,99227.06
2022-11-29T07:10:17.205Z,99230.44
2022-11-29T07:12:47.407Z,99232.19
2022-11-29T07:15:19.472Z,99233.03
2022-11-29T07:17:59.586Z,99231.97
2022-11-29T07:20:41.956Z,99230.09
2022-11-29T07:23:33.512Z,99235.34
2022-11-29T07:26:00.511Z,99232.69
2022-11-29T07:28:50.411Z,99233.50
2022-11-29T07:31:49.731Z,99237.69
2022-11-29T07:34:24.664Z,99246.31
2022-11-29T07:37:07.100Z,99243.53
2022-11-29T07:39:49.092Z,99245.13
2022-11-29T07:42:34.477Z,99243.16
2022-11-29T07:45:24.537Z,99242.13
2022-11-29T07:47:51.674Z,99250.06
2022-11-29T07:50:18.495Z,99245.53
2022-11-29T07:52:45.725Z,99250.84
2022-11-29T07:55:18.455Z,99250.72
2022-11-29T07:57:46.876Z,99255.88
2022-11-29T08:00:14.235Z,99253.06
2022-11-29T08:02:41.398Z,99252.94
2022-11-29T08:05:08.848Z,99260.09
2022-11-29T08:07:37.110Z,99254.63
2022-11-29T08:10:04.943Z,99257.13
2022-11-29T08:12:32.072Z,99250.78
2022-11-29T08:14:58.810Z,99251.44
2022-11-29T08:17:26.160Z,99245.16
2022-11-29T08:19:52.961Z,99250.41
2022-11-29T08:22:20.023Z,99244.88
2022-11-29T08:24:47.174Z,99238.63
2022-11-29T08:27:14.512Z,99235.88
2022-11-29T08:29:41.254Z,99256.09
2022-11-29T08:32:09.068Z,99245.34
2022-11-29T08:34:35.846Z,99254.03
2022-11-29T08:37:02.888Z,99247.72
2022-11-29T08:39:29.600Z,99258.31
2022-11-29T08:41:56.595Z,99248.38
2022-11-29T08:44:23.787Z,99249.97
2022-11-29T08:47:09.368Z,99252.56
2022-11-29T08:49:56.100Z,99253.31
2022-11-29T08:52:41.471Z,99258.78
2022-11-29T08:55:08.637Z,99258.78
2022-11-29T08:57:40.446Z,99262.94
2022-11-29T09:00:08.143Z,99265.50
2022-11-29T09:02:36.246Z,99260.25
2022-11-29T09:05:04.194Z,99262.03
2022-11-29T09:07:31.294Z,99267.38
2022-11-29T09:09:58.168Z,99258.41
2022-11-29T09:12:25.319Z,99255.56
2022-11-29T09:14:52.051Z,99259.88
2022-11-29T09:17:19.035Z,99262.94
2022-11-29T09:19:45.777Z,99267.16
2022-11-29T09:22:12.999Z,99262.03
2022-11-29T09:24:39.686Z,99262.69
2022-11-29T09:27:06.795Z,99262.41
2022-11-29T09:29:33.502Z,99259.81
2022-11-29T09:32:00.650Z,99261.50
2022-11-29T09:34:27.583Z,99263.31
2022-11-29T09:36:54.816Z,99265.03
2022-11-29T09:39:21.514Z,99262.34
2022-11-29T09:42:03.974Z,99265.69
2022-11-29T09:44:50.106Z,99269.91
2022-11-29T09:47:38.002Z,99269.84
2022-11-29T09:50:16.891Z,99267.38
2022-11-29T09:52:46.892Z,99268.88
2022-11-29T09:55:44.638Z,99260.56
2022-11-29T09:58:14.389Z,99254.50
2022-11-29T10:01:01.689Z,99259.00
2022-11-29T10:03:28.807Z,99267.59
2022-11-29T10:06:26.747Z,99261.88
2022-11-29T10:09:05.019Z,99257.53
2022-11-29T10:11:59.912Z,99259.00
2022-11-29T10:14:48.596Z,99261.44
2022-11-29T10:17:56.751Z,99255.75
2022-11-29T10:20:25.795Z,99257.72
2022-11-29T10:22:57.660Z,99260.31
2022-11-29T10:25:26.622Z,99255.50
2022-11-29T10:27:53.392Z,99249.31
2022-11-29T10:30:20.847Z,99256.06
2022-11-29T10:32:50.939Z,99254.13
2022-11-29T10:35:19.295Z,99246.97
2022-11-29T10:38:07.855Z,99255.13
2022-11-29T10:40:34.595Z,99258.59
2022-11-29T10:43:01.321Z,99243.94
2022-11-29T10:45:40.609Z,99255.28
2022-11-29T10:48:17.714Z,99258.81
2022-11-29T10:50:45.663Z,99256.72
2022-11-29T10:53:14.063Z,99256.66
2022-11-29T10:55:49.007Z,99250.06
2022-11-29T10:58:16.890Z,99260.63
2022-11-29T11:00:44.633Z,99259.75
2022-11-29T11:03:25.506Z,99253.25
2022-11-29T11:06:03.721Z,99251.28
2022-11-29T11:08:31.214Z,99243.97
2022-11-29T11:11:01.788Z,99247.41
2022-11-29T11:13:30.080Z,99249.91
2022-11-29T11:16:08.852Z,99255.81
2022-11-29T11:18:36.002Z,99246.88
2022-11-29T11:21:03.169Z,99255.66
2022-11-29T11:23:31.442Z,99260.88
2022-11-29T11:26:06.301Z,99258.06
2022-11-29T11:29:00.067Z,99262.22
2022-11-29T11:31:31.920Z,99252.25
2022-11-29T11:34:34.144Z,99252.09
2022-11-29T11:37:22.950Z,99258.97
2022-11-29T11:39:51.781Z,99257.78
2022-11-29T11:42:39.419Z,99257.63
2022-11-29T11:45:09.216Z,99245.75
2022-11-29T11:47:38.154Z,99246.13
2022-11-29T11:50:14.900Z,99253.09
2022-11-29T11:52:58.356Z,99254.66
2022-11-29T11:55:36.312Z,99260.84
2022-11-29T11:58:12.591Z,99255.34
2022-11-29T12:03:47.569Z,99263.16
2022-11-29T12:06:26.163Z,99259.69
2022-11-29T12:08:55.976Z,99265.28
2022-11-29T12:11:22.782Z,99269.22
2022-11-29T12:13:52.844Z,99267.31
2022-11-29T12:16:32.300Z,99261.41
2022-11-29T12:19:17.855Z,99260.63
2022-11-29T12:21:46.321Z,99261.09
2022-11-29T12:24:27.152Z,99262.31
2022-11-29T12:26:57.672Z,99257.50
2022-11-29T12:29:27.152Z,99261.56
2022-11-29T12:32:06.333Z,99254.56
2022-11-29T12:34:55.095Z,99263.47
2022-11-29T12:37:37.155Z,99261.56
2022-11-29T12:40:13.251Z,99253.53
2022-11-29T12:42:58.553Z,99261.66
2022-11-29T12:45:28.651Z,99269.75
2022-11-29T12:48:20.226Z,99266.16
2022-11-29T12:50:57.177Z,99265.25
2022-11-29T12:53:33.878Z,99266.53
2022-11-29T12:56:22.034Z,99263.63
2022-11-29T12:59:21.097Z,99269.91
2022-11-29T13:01:53.851Z,99277.16
2022-11-29T13:04:38.961Z,99276.88
2022-11-29T13:07:26.422Z,99272.38
2022-11-29T13:10:02.766Z,99273.22
2022-11-29T13:13:05.204Z,99276.94
2022-11-29T13:15:55.139Z,99286.53
2022-11-29T13:18:47.410Z,99280.09
2022-11-29T13:21:16.150Z,99278.19
2022-11-29T13:24:07.784Z,99276.59
2022-11-29T13:26:33.374Z,99281.59
2022-11-29T13:29:00.434Z,99275.34
2022-11-29T13:31:27.225Z,99283.63
2022-11-29T13:34:08.134Z,99281.97
2022-11-29T13:36:55.168Z,99285.97
2022-11-29T13:39:43.678Z,99289.34
2022-11-29T13:42:33.417Z,99290.94
2022-11-29T13:45:18.709Z,99287.84
2022-11-29T13:47:52.944Z,99291.91
2022-11-29T13:50:39.442Z,99297.88
2022-11-29T13:53:17.849Z,99308.50
2022-11-29T13:56:00.605Z,99304.00
2022-11-29T13:58:39.732Z,99305.03
2022-11-29T14:01:14.439Z,99306.59
2022-11-29T14:03:42.618Z,99302.84
2022-11-29T14:06:31.684Z,99299.38
2022-11-29T14:09:21.156Z,99310.94
2022-11-29T14:11:51.387Z,99304.91
2022-11-29T14:14:31.396Z,99308.50
2022-11-29T14:17:02.556Z,99310.94
2022-11-29T14:19:36.518Z,99316.47
2022-11-29T14:22:03.385Z,99313.84
2022-11-29T14:24:35.283Z,99316.75
2022-11-29T14:27:08.923Z,99322.94
2022-11-29T14:29:54.146Z,99315.75
2022-11-29T14:32:26.836Z,99319.56
2022-11-29T14:34:56.825Z,99321.13
2022-11-29T14:37:41.204Z,99331.03
2022-11-29T14:40:31.917Z,99326.00
2022-11-29T14:42:59.583Z,99332.13
2022-11-29T14:45:27.837Z,99337.88
2022-11-29T14:47:54.601Z,99336.91
2022-11-29T14:50:31.061Z,99335.44
2022-11-29T14:52:57.824Z,99336.75
2022-11-29T14:55:24.898Z,99337.00
2022-11-29T14:57:57.764Z,99336.19
2022-11-29T15:00:27.101Z,99339.25
2022-11-29T15:03:01.372Z,99338.91
2022-11-29T15:05:35.699Z,99331.84
2022-11-29T15:08:21.088Z,99344.63
2022-11-29T15:10:57.675Z,99342.97
2022-11-29T15:13:31.269Z,99351.88
2022-11-29T15:16:17.043Z,99351.78
2022-11-29T15:19:30.360Z,99356.47
2022-11-29T15:22:07.450Z,99354.53
2022-11-29T15:24:58.119Z,99356.44
2022-11-29T15:27:25.202Z,99360.19
2022-11-29T15:29:52.915Z,99360.34
2022-11-29T15:32:28.720Z,99356.06
2022-11-29T15:34:55.601Z,99360.75
2022-11-29T15:37:23.465Z,99358.94
2022-11-29T15:40:13.680Z,99359.25
2022-11-29T15:42:44.850Z,99360.59
2022-11-29T15:45:26.132Z,99356.22
2022-11-29T15:47:53.617Z,99357.00
2022-11-29T15:50:29.347Z,99365.03
2022-11-29T15:53:01.436Z,99364.44
2022-11-29T15:55:28.130Z,99361.78
2022-11-29T15:57:55.384Z,99367.97
2022-11-29T16:00:24.228Z,99366.19
2022-11-29T16:02:56.198Z,99371.63
2022-11-29T16:05:25.260Z,99371.63
2022-11-29T16:07:57.576Z,99370.72
2022-11-29T16:10:29.242Z,99376.06
2022-11-29T16:13:23.584Z,99379.84
2022-11-29T16:16:16.180Z,99378.09
2022-11-29T16:18:44.784Z,99375.44
2022-11-29T16:21:23.796Z,99380.72
2022-11-29T16:23:50.999Z,99388.00
2022-11-29T16:26:20.047Z,99382.13
2022-11-29T16:28:48.765Z,99384.75
2022-11-29T16:31:39.315Z,99385.69
2022-11-29T16:34:31.315Z,99382.44
2022-11-29T16:37:06.609Z,99391.31
2022-11-29T16:39:34.484Z,99393.41
2022-11-29T16:42:30.861Z,99389.06
2022-11-29T16:45:27.255Z,99394.34
2022-11-29T16:48:00.192Z,99390.09
2022-11-29T16:50:31.122Z,99391.00
2022-11-29T16:53:37.031Z,99391.22
2022-11-29T16:56:17.394Z,99387.81
2022-11-29T16:59:25.537Z,99390.53
2022-11-29T17:01:34.654Z,99397.78
2022-11-29T17:04:01.527Z,99394.31
2022-11-29T17:06:29.103Z,99401.53
2022-11-29T17:08:56.727Z,99403.25
2022-11-29T17:11:23.931Z,99398.03
2022-11-29T17:13:50.993Z,99401.59
2022-11-29T17:16:20.229Z,99404.28
2022-11-29T17:18:47.139Z,99396.72
2022-11-29T17:21:20.302Z,99397.38
2022-11-29T17:23:47.307Z,99396.84
2022-11-29T17:26:15.527Z,99404.94
2022-11-29T17:28:43.534Z,99400.97
2022-11-29T17:31:15.065Z,99406.19
2022-11-29T17:33:41.855Z,99407.16
2022-11-29T17:36:15.309Z,99414.13
2022-11-29T17:38:42.902Z,99410.66
2022-11-29T17:41:11.967Z,99414.34
2022-11-29T17:43:38.865Z,99414.50
2022-11-29T17:46:10.078Z,99415.41
2022-11-29T17:48:38.494Z,99424.63
2022-11-29T17:51:17.293Z,99426.47
2022-11-29T17:53:54.087Z,99427.59
2022-11-29T17:56:22.850Z,99426.47
2022-11-29T17:58:53.654Z,99423.34
2022-11-29T18:01:22.795Z,99425.78
2022-11-29T18:03:52.139Z,99423.97
2022-11-29T18:06:20.852Z,99424.75
2022-11-29T18:08:49.029Z,99429.66
2022-11-29T18:11:17.056Z,99430.28
2022-11-29T18:13:43.810Z,99433.19
2022-11-29T18:16:18.807Z,99436.81
2022-11-29T18:18:45.797Z,99442.47
2022-11-29T18:21:13.073Z,99439.97
2022-11-29T18:23:41.084Z,99432.91
2022-11-29T18:26:11.101Z,99442.59
2022-11-29T18:28:38.725Z,99441.91
2022-11-29T18:31:12.613Z,99447.44
2022-11-29T18:33:40.128Z,99447.50
2022-11-29T18:36:17.953Z,99446.88
2022-11-29T18:38:45.176Z,99447.16
2022-11-29T18:41:19.587Z,99438.34
2022-11-29T18:43:46.985Z,99448.91
2022-11-29T18:46:18.705Z,99453.50
2022-11-29T18:48:46.424Z,99451.56
2022-11-29T18:51:15.018Z,99455.38
2022-11-29T18:53:42.131Z,99453.09
2022-11-29T18:56:10.069Z,99451.69
2022-11-29T18:58:36.932Z,99450.31
2022-11-29T19:01:05.074Z,99458.25
2022-11-29T19:03:42.510Z,99454.72
2022-11-29T19:06:11.751Z,99458.38
2022-11-29T19:08:38.765Z,99461.91
2022-11-29T19:11:10.546Z,99458.59
2022-11-29T19:13:37.416Z,99457.81
2022-11-29T19:16:05.123Z,99465.13
2022-11-29T19:18:31.906Z,99465.50
2022-11-29T19:21:05.752Z,99466.19
2022-11-29T19:23:32.539Z,99472.66
2022-11-29T19:26:10.563Z,99472.00
2022-11-29T19:28:41.024Z,99478.09
2022-11-29T19:31:08.565Z,99476.53
2022-11-29T19:33:35.963Z,99485.00
2022-11-29T19:36:13.458Z,99485.72
2022-11-29T19:38:40.519Z,99488.53
2022-11-29T19:41:21.601Z,99486.03
2022-11-29T19:43:48.707Z,99484.13
2022-11-29T19:46:17.443Z,99490.19
2022-11-29T19:48:44.428Z,99493.34
2022-11-29T19:51:15.674Z,99499.72
2022-11-29T19:53:42.462Z,99487.53
2022-11-29T19:56:12.351Z,99500.59
2022-11-29T19:58:39.073Z,99493.75
2022-11-29T20:01:06.158Z,99499.91
2022-11-29T20:03:33.273Z,99504.53
2022-11-29T20:06:00.531Z,99503.75
2022-11-29T20:08:27.517Z,99503.63
2022-11-29T20:10:54.821Z,99507.75
2022-11-29T20:13:21.968Z,99503.53
2022-11-29T20:15:49.014Z,99511.19
2022-11-29T20:18:15.848Z,99500.53
2022-11-29T20:20:42.982Z,99508.69
2022-11-29T20:23:09.724Z,99512.59
2022-11-29T20:25:36.830Z,99505.34
2022-11-29T20:28:04.214Z,99499.31
2022-11-29T20:30:31.295Z,99509.88
2022-11-29T20:32:58.180Z,99513.50
2022-11-29T20:35:25.431Z,99509.34
2022-11-29T20:38:40.541Z,99510.09
2022-11-29T20:41:47.071Z,99504.66
2022-11-29T20:44:16.651Z,99499.53
2022-11-29T20:46:43.891Z,99505.00
2022-11-29T20:49:13.934Z,99513.00
2022-11-29T20:51:44.705Z,99510.72
2022-11-29T20:54:11.445Z,99514.94
2022-11-29T20:56:38.518Z,99510.44
2022-11-29T20:59:05.236Z,99511.38
2022-11-29T21:01:32.286Z,99510.13
2022-11-29T21:03:59.123Z,99509.91
2022-11-29T21:06:26.244Z,99514.88
2022-11-29T21:08:53.740Z,99513.88
2022-11-29T21:11:21.054Z,99505.06
2022-11-29T21:13:48.184Z,99507.53
2022-11-29T21:16:15.603Z,99501.44
2022-11-29T21:18:42.640Z,99509.44
2022-11-29T21:21:28.804Z,99511.16
2022-11-29T21:24:03.523Z,99506.94
2022-11-29T21:26:42.517Z,99505.97
2022-11-29T21:29:18.168Z,99512.47
2022-11-29T21:31:46.019Z,99513.94
2022-11-29T21:34:12.820Z,99512.91
2022-11-29T21:36:39.968Z,99520.63
2022-11-29T21:39:07.555Z,99524.09
2022-11-29T21:41:34.606Z,99524.25
2022-11-29T21:44:08.988Z,99522.44
2022-11-29T21:46:36.258Z,99532.25
2022-11-29T21:49:03.161Z,99529.88
2022-11-29T21:51:30.228Z,99529.53
2022-11-29T21:53:56.977Z,99522.88
2022-11-29T21:56:24.094Z,99530.78
2022-11-29T21:58:50.810Z,99531.84
2022-11-29T22:01:18.983Z,99528.47
2022-11-29T22:03:45.881Z,99527.41
2022-11-29T22:06:15.228Z,99525.81
2022-11-29T22:08:43.540Z,99528.28
2022-11-29T22:11:12.752Z,99530.88
2022-11-29T22:14:00.311Z,99525.59
2022-11-29T22:16:27.962Z,99525.03
2022-11-29T22:18:54.896Z,99528.03
2022-11-29T22:21:21.986Z,99524.22
2022-11-29T22:23:48.711Z,99521.22
2022-11-29T22:26:15.779Z,99517.56
2022-11-29T22:28:42.527Z,99520.41
2022-11-29T22:31:11.489Z,99523.41
2022-11-29T22:33:38.547Z,99513.75
2022-11-29T22:36:07.026Z,99515.34
2022-11-29T22:38:33.891Z,99514.66
2022-11-29T22:41:08.226Z,99514.50
2022-11-29T22:43:35.031Z,99510.72
2022-11-29T22:46:05.977Z,99515.13
2022-11-29T22:48:38.222Z,99513.94
2022-11-29T22:51:12.557Z,99516.44
2022-11-29T22:53:40.390Z,99521.72
2022-11-29T22:56:08.497Z,99519.88
2022-11-29T22:58:35.245Z,99520.47
2022-11-29T23:01:06.731Z,99526.72
2022-11-29T23:03:37.330Z,99525.75
2022-11-29T23:06:05.246Z,99536.50
2022-11-29T23:08:32.101Z,99533.91
2022-11-29T23:10:59.226Z,99528.63
2022-11-29T23:13:25.993Z,99531.19
2022-11-29T23:15:53.102Z,99532.19
2022-11-29T23:18:19.846Z,99526.81
2022-11-29T23:20:46.868Z,99525.81
2022-11-29T23:23:13.647Z,99524.41
2022-11-29T23:25:48.774Z,99522.44
2022-11-29T23:28:16.569Z,99527.81
2022-11-29T23:30:43.653Z,99527.72
2022-11-29T23:33:10.433Z,99521.13
2022-11-29T23:35:37.465Z,99523.69
2022-11-29T23:38:04.617Z,99524.56
2022-11-29T23:40:31.701Z,99524.56
2022-11-29T23:42:58.473Z,99525.22
2022-11-29T23:45:25.534Z,99525.03
2022-11-29T23:47:52.351Z,99525.97
2022-11-29T23:50:19.399Z,99526.88
2022-11-29T23:52:51.645Z,99526.94
2022-11-29T23:55:19.879Z,99530.78
2022-11-29T23:57:46.628Z,99528.09
